createdAt,value
2022-09-03T00:01:36.752Z,97582.34
2022-09-03T00:06:49.030Z,97586.94
2022-09-03T00:12:06.435Z,97579.75
2022-09-03T00:17:21.369Z,97573.69
2022-09-03T00:22:30.206Z,97579.56
2022-09-03T00:27:39.291Z,97577.03
2022-09-03T00:32:49.672Z,97572.16
2022-09-03T00:37:53.979Z,97574.06
2022-09-03T00:43:12.259Z,97574.34
2022-09-03T00:48:49.674Z,97572.34
2022-09-03T00:54:29.995Z,97570.13
2022-09-03T00:59:48.162Z,97574.72
2022-09-03T01:05:02.780Z,97586.41
2022-09-03T01:10:16.767Z,97566.81
2022-09-03T01:15:29.611Z,97570.09
2022-09-03T01:20:53.716Z,97567.38
2022-09-03T01:26:17.223Z,97575.00
2022-09-03T01:31:33.825Z,97570.56
2022-09-03T01:36:45.554Z,97575.34
2022-09-03T01:42:16.432Z,97576.34
2022-09-03T01:47:51.810Z,97582.69
2022-09-03T01:53:15.799Z,97577.44
2022-09-03T01:58:40.718Z,97583.22
2022-09-03T02:03:45.782Z,97582.00
2022-09-03T02:08:48.262Z,97576.97
2022-09-03T02:13:57.739Z,97579.78
2022-09-03T02:19:05.437Z,97591.13
2022-09-03T02:24:09.435Z,97597.75
2022-09-03T02:29:12.813Z,97591.78
2022-09-03T02:34:15.347Z,97586.13
2022-09-03T02:39:17.959Z,97590.19
2022-09-03T02:44:36.220Z,97577.34
2022-09-03T02:49:40.208Z,97581.78
2022-09-03T02:54:45.139Z,97581.41
2022-09-03T02:59:47.568Z,97579.03
2022-09-03T03:04:50.154Z,97579.25
2022-09-03T03:09:52.762Z,97582.94
2022-09-03T03:14:55.200Z,97586.69
2022-09-03T03:19:57.607Z,97598.75
2022-09-03T03:25:00.195Z,97599.00
2022-09-03T03:30:02.606Z,97600.00
2022-09-03T03:35:06.559Z,97597.69
2022-09-03T03:40:09.536Z,97590.34
2022-09-03T03:45:12.100Z,97593.44
2022-09-03T03:50:14.633Z,97604.53
2022-09-03T03:55:17.123Z,97606.81
2022-09-03T04:00:19.645Z,97610.97
2022-09-03T04:05:23.279Z,97600.34
2022-09-03T04:10:26.460Z,97593.50
2022-09-03T04:15:29.141Z,97607.25
2022-09-03T04:20:31.575Z,97598.28
2022-09-03T04:25:34.060Z,97603.00
2022-09-03T04:30:38.058Z,97605.44
2022-09-03T04:35:41.115Z,97602.22
2022-09-03T04:40:44.031Z,97611.56
2022-09-03T04:45:46.506Z,97611.13
2022-09-03T04:50:49.027Z,97603.94
2022-09-03T04:55:51.460Z,97600.53
2022-09-03T05:00:54.065Z,97609.84
2022-09-03T05:05:56.926Z,97618.63
2022-09-03T05:11:00.787Z,97606.19
2022-09-03T05:16:08.267Z,97599.47
2022-09-03T05:21:12.862Z,97609.97
2022-09-03T05:26:21.006Z,97602.53
2022-09-03T05:31:26.456Z,97605.72
2022-09-03T05:36:32.163Z,97609.88
2022-09-03T05:41:34.762Z,97612.63
2022-09-03T05:46:38.088Z,97619.09
2022-09-03T05:51:40.608Z,97613.81
2022-09-03T05:56:43.287Z,97620.56
2022-09-03T06:01:51.543Z,97627.31
2022-09-03T06:06:56.903Z,97620.97
2022-09-03T06:12:00.083Z,97628.16
2022-09-03T06:17:06.285Z,97636.69
2022-09-03T06:22:08.706Z,97629.31
2022-09-03T06:27:11.095Z,97642.28
2022-09-03T06:32:14.493Z,97638.38
2022-09-03T06:37:16.919Z,97637.38
2022-09-03T06:42:19.960Z,97634.38
2022-09-03T06:47:24.546Z,97640.25
2022-09-03T06:52:27.402Z,97639.41
2022-09-03T06:57:30.716Z,97641.72
2022-09-03T07:02:33.721Z,97637.59
2022-09-03T07:07:37.535Z,97634.34
2022-09-03T07:12:39.911Z,97640.97
2022-09-03T07:17:42.977Z,97641.53
2022-09-03T07:22:45.356Z,97631.63
2022-09-03T07:27:48.723Z,97643.69
2022-09-03T07:32:51.782Z,97635.91
2022-09-03T07:37:55.205Z,97643.22
2022-09-03T07:43:02.058Z,97640.38
2022-09-03T07:48:05.072Z,97650.41
2022-09-03T07:53:08.292Z,97654.91
2022-09-03T07:58:14.359Z,97648.84
2022-09-03T08:03:17.727Z,97655.94
2022-09-03T08:08:20.335Z,97652.81
2022-09-03T08:13:22.760Z,97651.88
2022-09-03T08:18:25.332Z,97666.53
2022-09-03T08:23:27.929Z,97664.69
2022-09-03T08:28:31.933Z,97663.31
2022-09-03T08:33:37.445Z,97656.56
2022-09-03T08:38:43.739Z,97663.03
2022-09-03T08:43:58.638Z,97659.66
2022-09-03T08:49:08.062Z,97662.72
2022-09-03T08:54:13.195Z,97679.97
2022-09-03T08:59:15.730Z,97681.38
2022-09-03T09:04:51.996Z,97680.69
2022-09-03T09:10:00.979Z,97687.59
2022-09-03T09:15:40.875Z,97704.59
2022-09-03T09:20:49.755Z,97700.25
2022-09-03T09:25:53.938Z,97703.91
2022-09-03T09:30:58.139Z,97698.78
2022-09-03T09:36:08.552Z,97694.59
2022-09-03T09:41:30.034Z,97690.25
2022-09-03T09:46:41.566Z,97691.09
2022-09-03T09:51:44.233Z,97685.06
2022-09-03T09:56:58.303Z,97679.56
2022-09-03T10:02:10.161Z,97684.66
2022-09-03T10:07:33.018Z,97692.19
2022-09-03T10:12:47.342Z,97699.28
2022-09-03T10:18:31.236Z,97700.13
2022-09-03T10:24:15.771Z,97691.22
2022-09-03T10:29:22.129Z,97690.59
2022-09-03T10:34:28.888Z,97681.75
2022-09-03T10:40:08.827Z,97688.09
2022-09-03T10:45:30.020Z,97691.75
2022-09-03T10:50:56.586Z,97691.53
2022-09-03T10:56:21.639Z,97682.56
2022-09-03T11:01:35.899Z,97670.78
2022-09-03T11:06:54.824Z,97670.16
2022-09-03T11:12:26.758Z,97655.63
2022-09-03T11:17:34.289Z,97654.78
2022-09-03T11:22:39.068Z,97654.66
2022-09-03T11:27:44.587Z,97649.44
2022-09-03T11:32:56.326Z,97652.66
2022-09-03T11:38:01.820Z,97645.53
2022-09-03T11:43:28.008Z,97648.50
2022-09-03T11:48:38.047Z,97644.00
2022-09-03T11:53:40.497Z,97656.63
2022-09-03T11:58:43.678Z,97647.66
2022-09-03T12:03:53.826Z,97682.41
2022-09-03T12:09:05.991Z,97681.50
2022-09-03T12:14:44.242Z,97686.44
2022-09-03T12:19:57.215Z,97675.66
2022-09-03T12:25:12.201Z,97687.47
2022-09-03T12:30:21.542Z,97697.44
2022-09-03T12:46:16.134Z,97742.09
2022-09-03T12:56:58.386Z,97748.19
2022-09-03T13:02:12.132Z,97742.69
2022-09-03T13:07:25.783Z,97740.88
2022-09-03T13:12:53.454Z,97735.03
2022-09-03T13:18:26.399Z,97739.63
2022-09-03T13:23:45.529Z,97735.53
2022-09-03T13:29:35.607Z,97728.53
2022-09-03T13:34:46.415Z,97741.81
2022-09-03T13:40:03.956Z,97743.84
2022-09-03T13:45:26.134Z,97739.31
2022-09-03T13:50:35.410Z,97725.41
2022-09-03T13:55:50.789Z,97718.19
2022-09-03T14:00:58.676Z,97719.41
2022-09-03T14:06:38.781Z,97704.78
2022-09-03T14:11:56.323Z,97710.50
2022-09-03T14:17:40.503Z,97709.53
2022-09-03T14:23:10.466Z,97701.84
2022-09-03T14:28:36.487Z,97706.13
2022-09-03T14:33:47.983Z,97699.94
2022-09-03T14:39:09.492Z,97703.09
2022-09-03T14:44:32.488Z,97705.44
2022-09-03T14:50:08.911Z,97706.28
2022-09-03T14:55:26.397Z,97714.31
2022-09-03T15:01:03.857Z,97706.94
2022-09-03T15:06:31.183Z,97698.78
2022-09-03T15:11:46.833Z,97692.06
2022-09-03T15:17:04.932Z,97700.59
2022-09-03T15:22:33.279Z,97693.16
2022-09-03T15:28:06.987Z,97689.63
2022-09-03T15:33:28.614Z,97704.13
2022-09-03T15:39:02.231Z,97706.66
2022-09-03T15:44:15.682Z,97697.88
2022-09-03T15:49:40.901Z,97715.94
2022-09-03T15:54:48.443Z,97717.44
2022-09-03T16:00:02.142Z,97715.09
2022-09-03T16:05:14.339Z,97730.41
2022-09-03T16:10:25.835Z,97719.97
2022-09-03T16:15:45.375Z,97717.34
2022-09-03T16:21:00.074Z,97724.66
2022-09-03T16:26:14.167Z,97718.94
2022-09-03T16:31:36.197Z,97713.97
2022-09-03T16:36:44.876Z,97705.34
2022-09-03T16:42:10.629Z,97712.63
2022-09-03T16:47:45.255Z,97722.38
2022-09-03T16:53:29.274Z,97724.66
2022-09-03T16:58:40.788Z,97717.94
2022-09-03T17:04:29.962Z,97722.47
2022-09-03T17:10:07.649Z,97715.59
2022-09-03T17:15:10.184Z,97723.03
2022-09-03T17:20:37.321Z,97726.41
2022-09-03T17:25:50.498Z,97731.13
2022-09-03T17:31:02.963Z,97726.88
2022-09-03T17:36:38.443Z,97728.94
2022-09-03T17:41:46.943Z,97744.56
2022-09-03T17:47:14.171Z,97750.09
2022-09-03T17:52:19.891Z,97751.38
2022-09-03T17:57:32.387Z,97763.72
2022-09-03T18:02:37.900Z,97772.25
2022-09-03T18:08:09.001Z,97787.34
2022-09-03T18:13:40.516Z,97781.31
2022-09-03T18:18:53.070Z,97792.13
2022-09-03T18:24:40.531Z,97798.69
2022-09-03T18:30:18.490Z,97801.81
2022-09-03T18:35:39.828Z,97799.16
2022-09-03T18:41:17.708Z,97813.25
2022-09-03T18:53:16.433Z,97816.28
2022-09-03T18:59:13.246Z,97819.03
2022-09-03T19:04:43.282Z,97820.56
2022-09-03T19:10:24.375Z,97823.28
2022-09-03T19:16:02.767Z,97821.53
2022-09-03T19:21:41.887Z,97824.75
2022-09-03T19:27:48.228Z,97838.28
2022-09-03T19:33:18.181Z,97837.69
2022-09-03T19:39:14.427Z,97841.97
2022-09-03T19:45:13.621Z,97854.81
2022-09-03T19:50:45.888Z,97855.53
2022-09-03T19:56:25.478Z,97868.16
2022-09-03T20:01:56.059Z,97868.56
2022-09-03T20:07:20.508Z,97865.84
2022-09-03T20:12:26.046Z,97868.09
2022-09-03T20:17:31.504Z,97870.19
2022-09-03T20:22:44.661Z,97859.78
2022-09-03T20:28:21.789Z,97869.38
2022-09-03T20:33:48.329Z,97869.13
2022-09-03T20:39:22.809Z,97881.72
2022-09-03T20:44:53.207Z,97887.91
2022-09-03T20:50:10.067Z,97902.84
2022-09-03T20:55:44.414Z,97899.50
2022-09-03T21:00:51.074Z,97905.53
2022-09-03T21:06:25.850Z,97891.28
2022-09-03T21:11:40.611Z,97897.59
2022-09-03T21:16:51.944Z,97907.91
2022-09-03T21:21:57.090Z,97913.50
2022-09-03T21:27:10.913Z,97912.75
2022-09-03T21:32:20.696Z,97906.81
2022-09-03T21:37:23.912Z,97911.97
2022-09-03T21:42:32.227Z,97908.84
2022-09-03T21:47:43.755Z,97935.59
2022-09-03T21:53:02.622Z,97933.97
2022-09-03T21:58:42.090Z,97932.97
2022-09-03T22:03:44.747Z,97928.19
2022-09-03T22:09:01.737Z,97927.25
2022-09-03T22:14:15.603Z,97926.81
2022-09-03T22:19:18.040Z,97930.88
2022-09-03T22:24:45.162Z,97941.25
2022-09-03T22:30:05.001Z,97945.63
2022-09-03T22:35:22.511Z,97948.28
2022-09-03T22:40:37.000Z,97946.19
2022-09-03T22:45:59.429Z,97955.06
2022-09-03T22:51:03.477Z,97943.84
2022-09-03T22:56:29.173Z,97954.34
2022-09-03T23:01:39.412Z,97956.97
2022-09-03T23:07:24.219Z,97958.41
2022-09-03T23:12:46.957Z,97953.44
2022-09-03T23:18:20.427Z,97954.56
2022-09-03T23:23:31.131Z,97959.44
2022-09-03T23:28:36.746Z,97960.69
2022-09-03T23:33:40.004Z,97959.38
2022-09-03T23:38:45.819Z,97968.16
2022-09-03T23:43:58.374Z,97970.25
2022-09-03T23:49:10.031Z,97964.63
2022-09-03T23:54:26.546Z,97969.41
2022-09-03T23:59:54.843Z,97969.88
